Main page
METAR-TAF:

METAR-TAF

Airports :

Kuito Airport

Kuito, Angola

latitude: 12-24-15S, longitude: 16-56-55E, elevation: 1712 m

Current weather observation

The report was made 1 hour and 11 minutes ago, at 09:00 UTC
Wind 7 kt from the South/Southeast with gusts up to 22 kt, varying between East and South
Temperature 26°C
Humidity 26%
Pressure 1024 hPa
Visibility 10 km or more
no clouds below 1500 m and no cumulonimbus

METAR: FNKU 240900Z 15007G22KT 090V180 CAVOK 26/05 Q1024

Time: 11:11 (10:11 UTC)

Forecast

The report was made 11 hours and 11 minutes ago, at 23:00 UTC
Forecast valid from 24 at 00 UTC to 24 at 12 UTC
Wind 7 kt from the Northwest
Visibility 10 km or more
Few clouds at a height of 2200 ft
Becoming
from 24 at 10 UTC to 24 at 12 UTC
Wind 5 kt from the East

TAF: FNKU 232300Z 2400/2412 32007KT 9999 FEW022 BECMG 2410/2412 08005KT

Weather observations and forecasts of more than 4000 airports (METAR and TAF reports).

The available stations are represented by yellow and red dots on the map.

Hover mouse over dot to see the name of the station.

Then click to see weather observations and forecasts.

To change the map : click on the green buttons with a black cross to zoom in, on the green button with a dash to zoom out, or on the green arrows for adjacent maps.


METAR-TAF: